Alderton, Washington
Current Conditions -  °F | °C
As of 1:34 PM on Thursday 27 Nov 2014 (Local Time) from KTCM Reporting Station
Overcast Overcast  
Wind Chill: 55°   Ceiling: 2900
Heat Index: 55°   Visibility: 10mi
Dew Point: 54°   Wind: 16mph
Humidity: 94%   Direction: 190°S
Pressure: 29.83"   Gusts: 23mph
Location:  47.1905°N, 122.328°W
Report Text: KTCM 272134Z AUTO 19014G20KT 10SM FEW014 SCT021 OVC029 13/12 A2983 RMK AO2 RAE2104 $
Loading
Personal Weather Stations






























Interactive Weather Map New forecast layout! Learn more

10-Day Weather Forecast

Advertisements
Track Severe Weather on mobile